Startpagina
METAR-TAF:

METAR-TAF

Vliegvelden :

Chiclayo, Peru

breedte: 06-47S, lengte: 079-50W, hoogte: 29 m

Actueel weer

Dit bericht is 16 minuten geleden gemaakt, om 13:00 UTC
Wind 4 kt uit het zuidzuidwesten
Temperatuur 24°C
Vochtigheid 74%
Druk 1011 hPa
Zicht 10 km of meer
Weinig wolken op 4000 ft
Gebroken wolken op 8000 ft

METAR: SPHI 191300Z 20004KT 9999 FEW040 BKN080 24/19 Q1011 RMK BIRD HAZARD RWY 19/01 PP000

Tijdstip: 08:16 (13:16 UTC)

Verwachting

Dit bericht is 2 uur en het 16 minuten geleden gemaakt, om 11:00 UTC
Verwachting geldig van 19 om 12 UTC tot 20 om 12 UTC
Wind 4 kt uit het westzuidwesten
Zicht 10 km of meer
geen wolken onder 1500 m en geen cumulonimbus
Wijzigt naar
van 19 om 17 UTC tot 19 om 19 UTC
Wind 18 kt uit het zuiden
Wijzigt naar
van 20 om 04 UTC tot 20 om 06 UTC
Wind 8 kt uit het zuiden

TAF: SPHI 191100Z 1912/2012 24004KT CAVOK TX30/1919Z TN22/2011Z BECMG 1917/1919 19018KT BECMG 2004/2006 18008KT

Waarnemingen en weersverwachtingen van meer dan 4000 vliegvelden (METAR en TAF).

De beschikbare stations zijn de gele en rode punten op de kaart.

Ga met uw muis naar het station om de naam te zien.

Klik dan om waarnemingen en weersverwachtingen te zien.

kaart wijzigen: klik op de groene knoppen met een zwart kruis om in te zoomen, op de groene knop met een streepje om uit te zoomen of op de groene pijlen voor aangrenzende kaarten.


METAR-TAF: